Time;durP1;ratioP1;P1;durP2;ratioP2;P2;SDS_P1;SDS_P2;PMS_P1;PMS_P2;Temp;Humidity;BMP_temperature;BMP_pressure;BME280_temperature;BME280_humidity;BME280_pressure;Samples;Min_cycle;Max_cycle;Signal;HPM_P1;HPM_P2
2021/06/26 00:00:10;;;;;;;1.50;0.97;;;16.70;99.90;;;;;;6251628;28;20199;-72
2021/06/26 00:03:14;;;;;;;2.93;1.00;;;16.80;99.90;;;;;;6251106;28;20196;-73
2021/06/26 00:06:16;;;;;;;0.70;0.70;;;16.80;99.90;;;;;;6255998;28;20193;-73
2021/06/26 00:09:19;;;;;;;0.70;0.70;;;16.90;99.90;;;;;;6256358;28;20240;-73
2021/06/26 00:12:21;;;;;;;0.73;0.70;;;16.90;99.90;;;;;;6256649;28;20562;-73
2021/06/26 00:15:23;;;;;;;0.60;0.60;;;16.90;99.90;;;;;;6274627;28;20269;-72
2021/06/26 00:18:25;;;;;;;0.83;0.77;;;16.90;99.90;;;;;;6273875;28;20191;-72
2021/06/26 00:21:28;;;;;;;0.70;0.70;;;17.00;99.90;;;;;;6274155;28;20274;-72
2021/06/26 00:24:30;;;;;;;3.67;0.70;;;17.00;99.90;;;;;;6273758;28;20187;-72
2021/06/26 00:27:33;;;;;;;1.17;0.60;;;17.00;99.90;;;;;;6273943;28;20669;-72
2021/06/26 00:30:35;;;;;;;1.23;0.60;;;17.00;99.90;;;;;;6273660;28;20211;-72
2021/06/26 00:33:38;;;;;;;0.60;0.60;;;17.00;99.90;;;;;;6239641;28;20246;-72
2021/06/26 00:36:40;;;;;;;1.87;0.90;;;17.10;99.90;;;;;;6273831;28;20186;-72
2021/06/26 00:39:42;;;;;;;0.80;0.60;;;17.10;99.90;;;;;;6255543;28;20221;-73
2021/06/26 00:42:46;;;;;;;2.27;0.83;;;17.10;99.90;;;;;;6273676;28;20187;-73
2021/06/26 00:45:50;;;;;;;0.70;0.70;;;17.10;99.90;;;;;;6255399;28;20377;-73
2021/06/26 00:48:53;;;;;;;1.50;0.77;;;17.10;99.90;;;;;;6239404;28;20333;-73
2021/06/26 00:51:55;;;;;;;1.30;0.90;;;17.00;99.90;;;;;;6256787;28;20197;-73
2021/06/26 00:54:57;;;;;;;1.43;1.00;;;17.00;99.90;;;;;;6255582;28;20203;-73
2021/06/26 00:58:01;;;;;;;2.57;1.20;;;17.00;99.90;;;;;;6239116;28;20257;-73
2021/06/26 01:01:04;;;;;;;0.90;0.90;;;17.10;99.90;;;;;;6255188;28;20206;-73
2021/06/26 01:04:07;;;;;;;3.10;1.20;;;17.10;99.90;;;;;;6255585;28;20235;-74
2021/06/26 01:07:09;;;;;;;1.10;1.00;;;17.10;99.90;;;;;;6273550;28;20194;-73
2021/06/26 01:10:12;;;;;;;1.90;1.10;;;17.10;99.90;;;;;;6272689;28;20237;-72
2021/06/26 01:13:14;;;;;;;4.07;1.37;;;17.10;99.90;;;;;;6255325;28;20753;-73
2021/06/26 01:16:16;;;;;;;2.27;1.40;;;17.10;99.90;;;;;;6271821;28;20772;-72
2021/06/26 01:19:20;;;;;;;3.33;1.20;;;17.00;99.90;;;;;;6272639;28;20206;-73
2021/06/26 01:22:23;;;;;;;1.37;1.13;;;17.00;99.90;;;;;;6255021;28;20191;-73
2021/06/26 01:25:27;;;;;;;1.77;1.13;;;17.00;99.90;;;;;;6272946;28;20191;-72
2021/06/26 01:28:30;;;;;;;1.00;0.83;;;16.90;99.90;;;;;;6254820;28;20293;-72
2021/06/26 01:31:32;;;;;;;3.53;1.30;;;16.80;99.90;;;;;;6254647;28;20662;-72
2021/06/26 01:34:34;;;;;;;1.67;1.30;;;16.80;99.90;;;;;;6272524;28;20200;-72
2021/06/26 01:37:40;;;;;;;2.90;1.30;;;16.70;99.90;;;;;;6271901;28;20230;-72
2021/06/26 01:40:42;;;;;;;3.73;1.43;;;16.70;99.90;;;;;;6272601;28;20186;-72
2021/06/26 01:43:44;;;;;;;1.73;1.17;;;16.70;99.90;;;;;;6254802;28;20647;-72
2021/06/26 01:46:47;;;;;;;1.30;1.20;;;16.70;99.90;;;;;;6254185;28;20190;-72
2021/06/26 01:49:49;;;;;;;4.90;1.70;;;16.70;99.90;;;;;;6254351;28;20203;-72
2021/06/26 01:52:52;;;;;;;2.00;1.20;;;16.70;99.90;;;;;;6253782;28;20191;-72
2021/06/26 01:55:54;;;;;;;1.30;1.20;;;16.70;99.90;;;;;;6254237;28;20195;-72
2021/06/26 01:58:56;;;;;;;3.13;1.50;;;16.70;99.90;;;;;;6253986;28;20268;-72
2021/06/26 02:01:58;;;;;;;2.30;1.50;;;16.70;99.90;;;;;;6271470;28;20187;-72
2021/06/26 02:05:02;;;;;;;4.93;1.40;;;16.70;99.90;;;;;;6245562;28;20245;-72
2021/06/26 02:08:04;;;;;;;2.60;1.13;;;16.70;99.90;;;;;;6245186;28;20200;-72
2021/06/26 02:11:07;;;;;;;2.00;1.40;;;16.70;99.90;;;;;;6247206;28;20184;-72
2021/06/26 02:14:09;;;;;;;1.27;1.17;;;16.70;99.90;;;;;;6246622;28;20216;-72
2021/06/26 02:17:11;;;;;;;2.13;1.47;;;16.60;99.90;;;;;;6245738;28;20543;-72
2021/06/26 02:20:14;;;;;;;1.67;1.57;;;16.60;99.90;;;;;;6246593;28;20211;-72
2021/06/26 02:23:16;;;;;;;5.10;1.50;;;16.60;99.90;;;;;;6245699;28;20189;-72
2021/06/26 02:26:18;;;;;;;3.40;1.50;;;16.60;99.90;;;;;;6246795;28;20682;-72
2021/06/26 02:29:20;;;;;;;1.50;1.40;;;16.60;99.90;;;;;;6244230;28;20238;-72
2021/06/26 02:32:23;;;;;;;1.77;1.30;;;16.60;99.90;;;;;;6246509;28;20496;-72
2021/06/26 02:35:25;;;;;;;1.53;1.43;;;16.60;99.90;;;;;;6228636;28;20314;-72
2021/06/26 02:38:27;;;;;;;1.30;1.20;;;16.50;99.90;;;;;;6245975;28;20341;-72
2021/06/26 02:41:29;;;;;;;2.20;1.70;;;16.40;99.90;;;;;;6244978;28;20696;-72
2021/06/26 02:44:32;;;;;;;2.53;1.50;;;16.40;99.90;;;;;;6228953;28;20200;-72
2021/06/26 02:47:35;;;;;;;1.50;1.40;;;16.40;99.90;;;;;;6220452;28;20192;-72
2021/06/26 02:50:37;;;;;;;1.30;1.20;;;16.30;99.90;;;;;;6220521;28;20192;-72
2021/06/26 02:53:39;;;;;;;1.47;1.37;;;16.30;99.90;;;;;;6221257;28;20212;-72
2021/06/26 02:56:41;;;;;;;2.37;0.97;;;16.30;99.90;;;;;;6220421;28;20213;-72
2021/06/26 02:59:44;;;;;;;4.30;1.30;;;16.30;99.90;;;;;;6244704;28;20224;-72
2021/06/26 03:02:46;;;;;;;1.77;1.47;;;16.20;99.90;;;;;;6244770;28;20643;-72
2021/06/26 03:05:49;;;;;;;2.10;1.40;;;16.20;99.90;;;;;;6244514;28;20246;-72
2021/06/26 03:08:51;;;;;;;2.83;1.37;;;16.20;99.90;;;;;;6245335;28;20188;-72
2021/06/26 03:11:53;;;;;;;3.20;1.60;;;16.20;99.90;;;;;;6244569;28;20212;-72
2021/06/26 03:14:55;;;;;;;1.63;1.40;;;16.10;99.90;;;;;;6245126;28;20209;-72
2021/06/26 03:17:58;;;;;;;1.37;1.27;;;16.10;99.90;;;;;;6246096;28;20203;-72
2021/06/26 03:21:00;;;;;;;2.20;1.70;;;16.10;99.90;;;;;;6245263;28;20239;-72
2021/06/26 03:24:02;;;;;;;2.23;1.90;;;16.10;99.90;;;;;;6245671;28;20552;-72
2021/06/26 03:27:05;;;;;;;1.93;1.50;;;16.10;99.90;;;;;;6228112;28;20685;-72
2021/06/26 03:30:09;;;;;;;1.93;1.60;;;16.10;99.90;;;;;;6243718;28;20199;-72
2021/06/26 03:33:11;;;;;;;3.80;1.80;;;16.10;99.90;;;;;;6245626;28;20196;-72
2021/06/26 03:36:14;;;;;;;3.27;1.70;;;16.10;99.90;;;;;;6243694;28;20663;-72
2021/06/26 03:39:17;;;;;;;1.70;1.53;;;16.10;99.90;;;;;;6243665;28;20185;-72
2021/06/26 03:42:19;;;;;;;1.90;1.50;;;16.10;99.90;;;;;;6245352;28;20326;-72
2021/06/26 03:45:21;;;;;;;3.77;1.97;;;16.10;99.90;;;;;;6244575;28;20192;-72
2021/06/26 03:48:23;;;;;;;2.00;1.80;;;16.10;99.90;;;;;;6245169;28;20222;-72
2021/06/26 03:51:26;;;;;;;1.80;1.57;;;16.10;99.90;;;;;;6243427;28;20222;-72
2021/06/26 03:54:28;;;;;;;2.07;1.33;;;16.10;99.90;;;;;;6245086;28;20230;-72
2021/06/26 03:57:30;;;;;;;1.60;1.50;;;16.10;99.90;;;;;;6244832;28;20199;-73
2021/06/26 04:00:33;;;;;;;4.07;1.63;;;16.10;99.90;;;;;;6243219;28;20662;-72
2021/06/26 04:03:36;;;;;;;1.67;1.50;;;16.00;99.90;;;;;;6247751;28;20227;-72
2021/06/26 04:06:38;;;;;;;1.60;1.37;;;16.00;99.90;;;;;;6269689;28;20632;-73
2021/06/26 04:09:41;;;;;;;1.70;1.60;;;16.00;99.90;;;;;;6252047;28;20196;-73
2021/06/26 04:12:43;;;;;;;4.10;1.70;;;16.00;99.90;;;;;;6251745;28;20249;-73
2021/06/26 04:15:45;;;;;;;1.77;1.60;;;16.00;99.90;;;;;;6269894;28;20210;-73
2021/06/26 04:18:48;;;;;;;3.60;1.70;;;16.00;99.90;;;;;;6251651;28;20191;-73
2021/06/26 04:21:50;;;;;;;2.97;1.80;;;16.00;99.90;;;;;;6251624;28;20188;-73
2021/06/26 04:24:52;;;;;;;4.83;1.57;;;16.10;99.90;;;;;;6269570;28;20562;-73
2021/06/26 04:27:55;;;;;;;1.87;1.77;;;16.10;99.90;;;;;;6268872;28;20206;-73
2021/06/26 04:30:57;;;;;;;2.33;1.70;;;16.30;99.90;;;;;;6235204;28;20204;-73
2021/06/26 04:33:59;;;;;;;1.60;1.50;;;16.40;99.90;;;;;;6251437;28;20259;-73
2021/06/26 04:37:02;;;;;;;2.70;1.70;;;16.50;99.90;;;;;;6251091;28;20705;-73
2021/06/26 04:40:05;;;;;;;2.37;1.47;;;16.50;99.90;;;;;;6251346;28;20579;-73
2021/06/26 04:43:07;;;;;;;2.43;1.60;;;16.60;99.90;;;;;;6234466;28;20196;-73
2021/06/26 04:46:10;;;;;;;1.63;1.50;;;16.60;99.90;;;;;;6251229;28;20569;-73
2021/06/26 04:49:13;;;;;;;1.40;1.30;;;16.60;99.90;;;;;;6251257;28;20200;-73
2021/06/26 04:52:15;;;;;;;19.67;13.33;;;16.60;99.90;;;;;;6237117;28;20204;-73
2021/06/26 04:55:17;;;;;;;4.03;1.80;;;16.60;99.90;;;;;;6273042;28;20210;-73
2021/06/26 04:58:21;;;;;;;1.87;1.37;;;16.60;99.90;;;;;;6255079;28;20665;-73
2021/06/26 05:01:23;;;;;;;4.13;1.70;;;16.70;99.90;;;;;;6272956;28;20721;-73
2021/06/26 05:04:25;;;;;;;1.97;1.53;;;16.90;99.90;;;;;;6254433;28;20235;-73
2021/06/26 05:07:28;;;;;;;2.50;1.40;;;17.00;99.90;;;;;;6255340;28;20191;-72
2021/06/26 05:10:30;;;;;;;1.73;1.63;;;17.10;99.90;;;;;;6255495;28;20203;-73
2021/06/26 05:13:33;;;;;;;3.33;1.60;;;17.20;99.90;;;;;;6272146;28;20200;-73
2021/06/26 05:16:35;;;;;;;4.67;1.53;;;17.30;99.90;;;;;;6254726;28;20198;-73
2021/06/26 05:19:37;;;;;;;1.53;1.43;;;17.40;99.90;;;;;;6254448;28;20187;-73
2021/06/26 05:22:40;;;;;;;3.03;1.57;;;17.60;99.90;;;;;;6254868;28;20192;-73
2021/06/26 05:25:47;;;;;;;1.93;1.60;;;17.70;99.90;;;;;;6272426;28;20673;-73
2021/06/26 05:28:55;;;;;;;2.83;1.63;;;17.70;99.90;;;;;;6271763;28;20187;-72
2021/06/26 05:31:58;;;;;;;1.70;1.60;;;17.70;99.90;;;;;;6272275;28;20191;-74
2021/06/26 05:35:01;;;;;;;2.20;2.00;;;17.80;99.90;;;;;;6253889;28;20235;-73
2021/06/26 05:38:03;;;;;;;1.70;1.60;;;17.80;99.90;;;;;;6254140;28;20199;-73
2021/06/26 05:41:05;;;;;;;2.73;2.50;;;17.80;99.90;;;;;;6238084;28;20195;-73
2021/06/26 05:44:08;;;;;;;2.87;2.50;;;17.80;99.90;;;;;;6253765;28;20226;-73
2021/06/26 05:47:10;;;;;;;4.27;2.33;;;17.90;99.90;;;;;;6272023;28;20659;-74
2021/06/26 05:50:13;;;;;;;2.57;2.30;;;17.90;99.90;;;;;;6271553;28;20190;-73
2021/06/26 05:53:18;;;;;;;3.57;2.10;;;17.90;99.90;;;;;;6238233;28;20200;-73
2021/06/26 05:56:21;;;;;;;2.97;2.77;;;17.90;99.90;;;;;;6238765;28;20227;-73
2021/06/26 05:59:24;;;;;;;3.93;2.93;;;17.90;99.90;;;;;;6271574;28;20196;-73
2021/06/26 06:02:26;;;;;;;3.53;3.10;;;18.00;99.90;;;;;;6271717;28;20194;-73
2021/06/26 06:05:29;;;;;;;2.80;2.60;;;18.20;99.90;;;;;;6237406;28;20243;-73
2021/06/26 06:08:31;;;;;;;4.87;2.97;;;18.30;99.90;;;;;;6253665;28;20192;-73
2021/06/26 06:11:34;;;;;;;2.97;2.77;;;18.50;99.90;;;;;;6270910;28;20194;-73
2021/06/26 06:14:37;;;;;;;4.47;3.30;;;18.70;99.90;;;;;;6271930;28;20765;-73
2021/06/26 06:17:39;;;;;;;3.57;3.27;;;18.80;99.90;;;;;;6253448;28;20192;-73
2021/06/26 06:20:42;;;;;;;4.97;3.47;;;18.90;99.90;;;;;;6251930;28;20207;-73
2021/06/26 06:23:45;;;;;;;5.37;3.90;;;18.80;99.90;;;;;;6270916;28;20187;-73
2021/06/26 06:26:47;;;;;;;5.23;3.50;;;18.80;99.90;;;;;;6270721;28;20192;-73
2021/06/26 06:29:49;;;;;;;5.27;3.70;;;18.80;99.90;;;;;;6270215;28;20199;-73
2021/06/26 06:32:51;;;;;;;6.43;4.03;;;18.90;99.90;;;;;;6252615;28;20195;-73
2021/06/26 06:35:54;;;;;;;3.47;3.20;;;19.00;99.90;;;;;;6269847;28;20261;-73
2021/06/26 06:38:56;;;;;;;6.23;3.20;;;19.20;99.90;;;;;;6270179;28;20187;-73
2021/06/26 06:41:59;;;;;;;4.03;3.10;;;19.50;99.90;;;;;;6269804;28;20183;-73
2021/06/26 06:45:03;;;;;;;3.60;3.30;;;19.80;99.90;;;;;;6236188;28;20199;-73
2021/06/26 06:48:05;;;;;;;3.83;3.40;;;20.10;99.90;;;;;;6235372;28;20200;-74
2021/06/26 06:51:08;;;;;;;3.37;3.13;;;20.30;99.90;;;;;;6270600;28;20270;-74
2021/06/26 06:54:12;;;;;;;4.00;3.30;;;20.40;99.90;;;;;;6252243;28;20200;-73
2021/06/26 06:57:20;;;;;;;3.50;3.20;;;20.20;99.90;;;;;;6269348;28;20236;-74
2021/06/26 07:00:22;;;;;;;2.70;2.50;;;20.10;99.90;;;;;;6269683;28;20172;-74
2021/06/26 07:03:24;;;;;;;3.90;2.93;;;20.10;99.90;;;;;;6251781;28;20691;-73
2021/06/26 07:06:27;;;;;;;4.90;2.73;;;20.30;99.90;;;;;;6252150;28;20179;-74
2021/06/26 07:09:31;;;;;;;3.40;2.70;;;20.60;99.90;;;;;;6252237;28;20187;-73
2021/06/26 07:12:34;;;;;;;2.80;2.50;;;20.90;99.90;;;;;;6269459;28;20599;-75
2021/06/26 07:15:38;;;;;;;2.00;1.90;;;21.10;99.90;;;;;;6250892;28;20243;-74
2021/06/26 07:18:41;;;;;;;2.77;2.10;;;21.10;99.90;;;;;;6251659;28;20229;-74
2021/06/26 07:21:43;;;;;;;2.10;2.00;;;21.00;99.90;;;;;;6238869;28;20198;-74
2021/06/26 07:24:45;;;;;;;2.77;1.97;;;20.90;99.90;;;;;;6266853;28;20400;-74
2021/06/26 07:27:47;;;;;;;2.10;1.87;;;21.20;99.90;;;;;;6268316;28;20217;-74
2021/06/26 07:30:49;;;;;;;2.70;1.90;;;21.50;99.90;;;;;;6269204;28;20242;-73
2021/06/26 07:33:52;;;;;;;2.00;1.90;;;21.80;99.90;;;;;;6250841;28;20203;-74
2021/06/26 07:36:54;;;;;;;1.67;1.57;;;22.00;99.90;;;;;;6268962;28;20215;-74
2021/06/26 07:39:57;;;;;;;3.10;1.70;;;22.40;99.90;;;;;;6251143;28;20180;-74
2021/06/26 07:42:59;;;;;;;1.80;1.70;;;22.50;99.90;;;;;;6251532;28;20552;-74
2021/06/26 07:46:03;;;;;;;1.90;1.70;;;22.40;99.90;;;;;;6269281;28;20214;-74
2021/06/26 07:49:06;;;;;;;2.03;1.50;;;22.40;99.90;;;;;;6250574;28;20199;-74
2021/06/26 07:52:08;;;;;;;1.93;1.83;;;22.30;99.90;;;;;;6250878;28;20207;-75
2021/06/26 07:55:10;;;;;;;2.40;1.50;;;21.80;99.90;;;;;;6268708;28;20698;-75
2021/06/26 07:58:12;;;;;;;1.97;1.53;;;21.50;99.90;;;;;;6251794;28;20199;-74
2021/06/26 08:01:16;;;;;;;1.07;1.07;;;21.50;99.90;;;;;;6269083;28;20194;-74
2021/06/26 08:04:19;;;;;;;2.30;1.00;;;21.40;99.90;;;;;;6250130;28;20265;-74
2021/06/26 08:07:22;;;;;;;1.30;1.20;;;21.30;99.90;;;;;;6250454;28;20678;-74
2021/06/26 08:10:24;;;;;;;1.33;1.20;;;21.50;99.90;;;;;;6268109;28;20262;-74
2021/06/26 08:13:26;;;;;;;1.50;1.40;;;22.20;99.90;;;;;;6251332;28;20183;-74
2021/06/26 08:16:29;;;;;;;1.43;1.30;;;22.80;99.90;;;;;;6269047;28;20738;-74
2021/06/26 08:19:31;;;;;;;2.00;1.10;;;23.30;99.90;;;;;;6267716;28;20194;-74
2021/06/26 08:22:34;;;;;;;1.83;1.30;;;23.40;99.90;;;;;;6250587;28;20598;-74
2021/06/26 08:25:36;;;;;;;1.50;1.40;;;23.20;99.90;;;;;;6252202;28;20199;-75
2021/06/26 08:28:39;;;;;;;2.37;2.17;;;22.80;99.90;;;;;;6255207;28;20552;-72
2021/06/26 08:31:41;;;;;;;1.60;1.17;;;23.00;99.90;;;;;;6237882;28;20614;-74
2021/06/26 08:34:43;;;;;;;2.10;0.90;;;23.40;99.90;;;;;;6255955;28;20215;-74
2021/06/26 08:38:05;;;;;;;1.27;1.17;;;24.00;99.90;;;;;;6258938;28;20638;-75
2021/06/26 08:41:09;;;;;;;1.40;1.30;;;24.60;99.50;;;;;;6273028;28;20187;-74
2021/06/26 08:44:12;;;;;;;56.13;48.50;;;24.60;98.00;;;;;;6273321;28;20395;-74
2021/06/26 08:47:15;;;;;;;1.30;1.20;;;24.40;98.80;;;;;;6272906;28;20194;-73
2021/06/26 08:50:20;;;;;;;1.87;1.30;;;24.70;97.50;;;;;;6255021;28;20196;-74
2021/06/26 08:53:22;;;;;;;1.27;1.17;;;25.10;96.20;;;;;;6255942;28;20204;-74
2021/06/26 08:56:24;;;;;;;1.23;1.13;;;25.40;93.00;;;;;;6258223;28;20207;-72
2021/06/26 08:59:27;;;;;;;1.60;1.30;;;25.20;92.80;;;;;;6280073;28;20191;-69
2021/06/26 09:02:30;;;;;;;0.90;0.90;;;24.80;93.00;;;;;;6280849;28;20551;-69
2021/06/26 09:05:33;;;;;;;1.83;1.50;;;25.10;93.20;;;;;;6285070;28;20242;-70
2021/06/26 09:08:48;;;;;;;1.65;1.55;;;25.50;92.10;;;;;;6286043;28;20622;-71
2021/06/26 09:11:59;;;;;;;1.50;1.40;;;25.80;91.50;;;;;;6265675;28;20188;-70
2021/06/26 09:15:02;;;;;;;2.33;1.77;;;25.50;91.90;;;;;;6278696;28;20215;-71
2021/06/26 09:18:16;;;;;;;1.48;1.30;;;24.90;91.70;;;;;;6276828;28;20215;-76
2021/06/26 09:21:28;;;;;;;1.30;1.20;;;24.60;93.60;;;;;;6238652;28;20675;-70
2021/06/26 09:24:44;;;;;;;5.73;4.87;;;25.20;95.40;;;;;;6253686;28;20275;-74
2021/06/26 09:27:46;;;;;;;1.55;1.40;;;25.70;93.30;;;;;;6273640;28;20219;-71
2021/06/26 09:30:49;;;;;;;3.13;2.78;;;25.80;91.00;;;;;;6255914;28;20532;-71
2021/06/26 09:34:00;;;;;;;3.58;2.95;;;25.70;91.20;;;;;;6256084;28;20286;-69
2021/06/26 09:37:07;;;;;;;1.92;1.73;;;25.50;92.20;;;;;;6272237;28;20210;-67
2021/06/26 09:40:12;;;;;;;3.85;1.80;;;25.60;93.90;;;;;;6272320;28;20175;-75
2021/06/26 09:43:25;;;;;;;2.00;1.60;;;26.30;93.30;;;;;;6254314;28;20236;-74
2021/06/26 09:46:27;;;;;;;2.25;1.60;;;26.90;91.00;;;;;;6252616;28;20275;-76
2021/06/26 09:49:34;;;;;;;2.80;2.60;;;27.60;88.30;;;;;;6272143;28;20184;-76
2021/06/26 09:52:50;;;;;;;2.35;2.15;;;27.90;84.60;;;;;;6239747;28;20222;-76
2021/06/26 09:55:55;;;;;;;2.78;1.88;;;27.40;85.30;;;;;;6254402;28;20634;-76
2021/06/26 09:58:57;;;;;;;1.90;1.80;;;27.00;87.20;;;;;;6255523;28;20187;-76
2021/06/26 10:02:00;;;;;;;2.22;1.90;;;26.80;87.10;;;;;;6272685;28;20266;-77
2021/06/26 10:05:04;;;;;;;2.50;2.00;;;27.10;85.10;;;;;;6247154;28;20242;-76
2021/06/26 10:08:07;;;;;;;2.47;2.00;;;27.30;82.90;;;;;;6247726;28;20715;-76
2021/06/26 10:11:09;;;;;;;3.42;2.33;;;27.60;81.80;;;;;;6249321;28;20192;-76
2021/06/26 10:14:12;;;;;;;2.33;2.13;;;27.80;79.50;;;;;;6250614;28;20549;-76
2021/06/26 10:17:15;;;;;;;1.98;1.77;;;28.20;80.00;;;;;;6249158;28;20226;-77
2021/06/26 10:20:20;;;;;;;2.40;2.20;;;28.40;78.40;;;;;;6248410;28;20199;-77
2021/06/26 10:23:23;;;;;;;3.42;3.13;;;28.80;76.90;;;;;;6229122;28;20228;-77
2021/06/26 10:26:26;;;;;;;1.98;1.88;;;29.40;73.50;;;;;;6248672;28;20199;-76
2021/06/26 10:29:36;;;;;;;1.85;1.75;;;30.00;72.40;;;;;;6251710;28;20246;-77
2021/06/26 10:33:02;;;;;;;1.90;1.80;;;30.20;67.80;;;;;;6251251;28;20655;-77
2021/06/26 10:36:05;;;;;;;1.75;1.65;;;29.70;68.70;;;;;;6251779;28;20323;-76
2021/06/26 10:39:22;;;;;;;2.17;1.80;;;29.40;67.40;;;;;;6247883;28;20496;-77
2021/06/26 10:42:33;;;;;;;1.88;1.77;;;28.90;70.40;;;;;;6230553;28;20204;-76
2021/06/26 10:45:36;;;;;;;1.85;1.75;;;28.80;72.30;;;;;;6249342;28;20180;-77
2021/06/26 10:48:53;;;;;;;1.95;1.85;;;29.20;72.20;;;;;;6251144;28;20184;-76
2021/06/26 10:52:09;;;;;;;1.67;1.50;;;29.60;66.90;;;;;;6251456;28;20185;-77
2021/06/26 10:55:12;;;;;;;1.75;1.65;;;29.80;68.10;;;;;;6246959;28;20247;-76
2021/06/26 10:58:14;;;;;;;2.00;1.80;;;30.00;64.80;;;;;;6251105;28;20199;-76
2021/06/26 11:01:22;;;;;;;2.30;1.90;;;30.20;64.50;;;;;;6233938;28;20231;-77
2021/06/26 11:04:25;;;;;;;2.47;2.22;;;30.50;59.50;;;;;;6232372;28;20232;-76
2021/06/26 11:07:33;;;;;;;3.30;1.60;;;30.70;60.20;;;;;;6249987;28;20267;-76
2021/06/26 11:10:35;;;;;;;1.45;1.35;;;30.30;59.40;;;;;;6252123;28;20192;-77
2021/06/26 11:13:39;;;;;;;2.28;1.38;;;30.60;60.30;;;;;;6251187;28;20188;-76
2021/06/26 11:16:49;;;;;;;3.08;1.83;;;30.80;58.10;;;;;;6250308;28;20212;-77
2021/06/26 11:19:52;;;;;;;2.30;2.10;;;31.10;58.30;;;;;;6249935;28;20200;-76
2021/06/26 11:22:58;;;;;;;2.25;2.10;;;31.40;57.40;;;;;;6250610;28;20230;-76
2021/06/26 11:26:05;;;;;;;2.15;2.05;;;31.30;54.80;;;;;;6251982;28;20172;-76
2021/06/26 11:29:07;;;;;;;2.70;2.17;;;31.00;56.20;;;;;;6248956;28;20202;-76
2021/06/26 11:32:23;;;;;;;1.75;1.65;;;31.10;57.60;;;;;;6249959;28;20199;-76
2021/06/26 11:35:39;;;;;;;2.75;1.90;;;31.30;57.30;;;;;;6255324;28;20196;-76
2021/06/26 11:38:42;;;;;;;4.13;2.03;;;31.60;56.30;;;;;;6246439;28;20199;-76
2021/06/26 11:41:44;;;;;;;2.03;1.83;;;31.90;54.80;;;;;;6249125;28;20192;-76
2021/06/26 11:44:47;;;;;;;4.60;2.10;;;32.00;54.50;;;;;;6245777;28;20536;-76
2021/06/26 11:48:11;;;;;;;2.00;1.90;;;32.20;54.30;;;;;;6245588;28;20299;-76
2021/06/26 11:51:14;;;;;;;2.95;2.10;;;32.20;53.50;;;;;;6249138;28;20184;-76
2021/06/26 11:54:20;;;;;;;3.90;2.05;;;32.10;53.40;;;;;;6245854;28;20191;-76
2021/06/26 11:57:28;;;;;;;2.45;1.92;;;32.20;53.30;;;;;;6247680;28;20574;-76
2021/06/26 12:00:31;;;;;;;2.20;2.08;;;32.30;53.20;;;;;;6245111;28;20195;-76
2021/06/26 12:03:34;;;;;;;1.88;1.77;;;32.40;51.00;;;;;;6252514;28;20200;-74
2021/06/26 12:06:39;;;;;;;2.60;2.40;;;32.20;51.80;;;;;;6257026;28;20274;-75
2021/06/26 12:09:43;;;;;;;2.97;1.90;;;32.20;51.60;;;;;;6275403;28;20194;-73
2021/06/26 12:12:45;;;;;;;2.45;2.25;;;32.30;51.60;;;;;;6256909;28;20196;-75
2021/06/26 12:15:49;;;;;;;2.75;1.98;;;32.20;51.90;;;;;;6274091;28;20215;-74
2021/06/26 12:19:00;;;;;;;1.98;1.88;;;32.40;53.80;;;;;;6274279;28;20183;-72
2021/06/26 12:22:04;;;;;;;1.90;1.60;;;32.70;52.50;;;;;;6256443;28;20655;-73
2021/06/26 12:25:21;;;;;;;2.25;2.05;;;32.60;50.60;;;;;;6274123;28;20191;-71
2021/06/26 12:28:23;;;;;;;2.50;2.30;;;32.60;50.70;;;;;;6256308;28;20226;-73
2021/06/26 12:31:26;;;;;;;2.15;2.05;;;32.90;50.10;;;;;;6239909;28;20645;-73
2021/06/26 12:34:29;;;;;;;2.17;1.98;;;33.00;48.60;;;;;;6273994;28;20192;-70
2021/06/26 12:37:37;;;;;;;2.47;2.28;;;32.90;48.20;;;;;;6255242;28;20218;-73
2021/06/26 12:40:43;;;;;;;1.90;1.80;;;33.00;47.50;;;;;;6273716;28;20179;-68
2021/06/26 12:43:45;;;;;;;2.33;2.17;;;33.00;49.00;;;;;;6255309;28;20636;-74
2021/06/26 12:46:48;;;;;;;2.17;2.00;;;33.30;48.00;;;;;;6256115;28;20337;-74
2021/06/26 12:50:12;;;;;;;2.30;2.10;;;33.60;48.50;;;;;;6256387;28;20217;-72
2021/06/26 12:53:18;;;;;;;2.10;1.90;;;34.20;50.00;;;;;;6255261;28;20230;-74
2021/06/26 12:56:32;;;;;;;2.38;2.17;;;34.30;46.70;;;;;;6240944;28;20216;-75
2021/06/26 12:59:37;;;;;;;2.30;2.10;;;34.40;47.90;;;;;;6272823;28;20210;-71
2021/06/26 13:02:43;;;;;;;3.95;2.45;;;34.70;46.60;;;;;;6273439;28;20187;-68
2021/06/26 13:05:48;;;;;;;2.58;2.38;;;34.20;47.30;;;;;;6272658;28;20373;-74
2021/06/26 13:08:53;;;;;;;2.40;2.20;;;33.90;47.00;;;;;;6240076;28;20199;-75
2021/06/26 13:11:55;;;;;;;2.40;2.20;;;33.70;47.30;;;;;;6255104;28;20678;-75
2021/06/26 13:15:04;;;;;;;2.53;2.30;;;33.60;48.50;;;;;;6273131;28;20205;-73
2021/06/26 13:18:06;;;;;;;2.50;2.17;;;33.90;48.20;;;;;;6257001;28;20207;-74
2021/06/26 13:21:10;;;;;;;4.35;2.38;;;34.00;47.10;;;;;;6240404;28;20647;-75
2021/06/26 13:24:12;;;;;;;2.10;1.90;;;34.00;47.70;;;;;;6274170;28;20233;-74
2021/06/26 13:27:16;;;;;;;2.10;1.90;;;34.30;46.20;;;;;;6255637;28;20203;-74
2021/06/26 13:30:19;;;;;;;2.15;1.90;;;34.60;45.20;;;;;;6273482;28;20191;-70
2021/06/26 13:33:21;;;;;;;2.30;2.10;;;34.70;45.40;;;;;;6273626;28;20697;-67
2021/06/26 13:36:23;;;;;;;2.28;2.05;;;34.10;44.60;;;;;;6273651;28;20445;-73
2021/06/26 13:39:26;;;;;;;1.70;1.60;;;33.80;46.00;;;;;;6256934;28;20257;-75
2021/06/26 13:42:28;;;;;;;2.67;2.20;;;34.00;45.90;;;;;;6272939;28;20186;-75
2021/06/26 13:45:30;;;;;;;2.20;1.77;;;33.70;46.00;;;;;;6256557;28;20187;-75
2021/06/26 13:48:33;;;;;;;2.13;1.90;;;33.60;47.20;;;;;;6273501;28;20225;-75
2021/06/26 13:51:36;;;;;;;2.05;1.65;;;34.30;46.70;;;;;;6254326;28;20187;-75
2021/06/26 13:54:38;;;;;;;2.13;1.70;;;35.00;46.30;;;;;;6273600;28;20679;-75
2021/06/26 13:57:40;;;;;;;1.77;1.67;;;35.30;43.80;;;;;;6255391;28;20219;-75
2021/06/26 14:00:42;;;;;;;1.80;1.70;;;35.50;44.00;;;;;;6256887;28;20282;-75
2021/06/26 14:03:45;;;;;;;1.70;1.52;;;35.40;43.10;;;;;;6254855;28;20238;-75
2021/06/26 14:06:48;;;;;;;4.20;1.80;;;35.60;42.00;;;;;;6272006;28;20187;-75
2021/06/26 14:09:50;;;;;;;1.45;1.30;;;35.90;43.60;;;;;;6254794;28;20195;-74
2021/06/26 14:12:52;;;;;;;1.80;1.70;;;36.30;41.90;;;;;;6274837;28;20664;-75
2021/06/26 14:15:55;;;;;;;1.73;1.63;;;35.80;41.00;;;;;;6255384;28;20578;-75
2021/06/26 14:18:57;;;;;;;1.63;1.52;;;35.50;42.00;;;;;;6255183;28;20211;-75
2021/06/26 14:21:59;;;;;;;2.13;1.60;;;36.10;40.50;;;;;;6254252;28;20305;-75
2021/06/26 14:25:01;;;;;;;1.70;1.35;;;36.40;41.00;;;;;;6255333;28;20558;-75
2021/06/26 14:28:04;;;;;;;2.85;1.67;;;36.90;39.90;;;;;;6239302;28;20254;-75
2021/06/26 14:31:06;;;;;;;1.38;1.27;;;37.10;38.60;;;;;;6272706;28;20192;-74
2021/06/26 14:34:09;;;;;;;2.15;1.55;;;37.00;38.80;;;;;;6255754;28;20187;-75
2021/06/26 14:37:11;;;;;;;1.58;1.48;;;37.40;39.00;;;;;;6273490;28;20207;-75
2021/06/26 14:40:14;;;;;;;1.70;1.60;;;37.70;38.90;;;;;;6256446;28;20199;-75
2021/06/26 14:43:16;;;;;;;1.75;1.63;;;37.80;37.70;;;;;;6274013;28;20195;-75
2021/06/26 14:46:18;;;;;;;1.48;1.38;;;37.60;37.70;;;;;;6273711;28;20198;-75
2021/06/26 14:49:22;;;;;;;1.55;1.45;;;37.90;38.20;;;;;;6255245;28;20195;-75
2021/06/26 14:52:24;;;;;;;1.73;1.60;;;38.00;38.70;;;;;;6274145;28;20199;-75
2021/06/26 14:55:27;;;;;;;1.52;1.40;;;38.30;37.60;;;;;;6256042;28;20199;-75
2021/06/26 14:58:29;;;;;;;2.00;1.90;;;38.60;37.90;;;;;;6271669;28;20781;-74
2021/06/26 15:01:31;;;;;;;1.70;1.60;;;38.50;35.80;;;;;;6240029;28;20336;-75
2021/06/26 15:04:33;;;;;;;1.45;1.35;;;38.50;37.40;;;;;;6255403;28;20674;-76
2021/06/26 15:07:38;;;;;;;2.35;1.30;;;39.20;37.10;;;;;;6270585;28;20673;-75
2021/06/26 15:10:40;;;;;;;1.65;1.48;;;39.70;36.40;;;;;;6272677;28;20724;-75
2021/06/26 15:13:42;;;;;;;1.50;1.40;;;40.10;35.80;;;;;;6237356;28;20203;-74
2021/06/26 15:16:44;;;;;;;1.30;1.20;;;40.10;36.30;;;;;;6272538;28;20207;-75
2021/06/26 15:19:47;;;;;;;1.60;1.50;;;39.80;35.60;;;;;;6271038;28;20202;-75
2021/06/26 15:22:51;;;;;;;2.78;1.40;;;39.40;35.90;;;;;;6270884;28;20238;-75
2021/06/26 15:25:53;;;;;;;1.98;1.77;;;39.20;36.40;;;;;;6254476;28;20195;-75
2021/06/26 15:29:05;;;;;;;1.40;1.30;;;39.00;36.10;;;;;;6270937;28;20195;-75
2021/06/26 15:32:09;;;;;;;1.45;1.35;;;39.00;37.90;;;;;;6254199;28;20659;-75
2021/06/26 15:35:12;;;;;;;1.50;1.40;;;39.40;37.10;;;;;;6253553;28;20191;-75
2021/06/26 15:38:14;;;;;;;1.40;1.30;;;39.40;35.50;;;;;;6271079;28;20215;-75
2021/06/26 15:41:17;;;;;;;2.42;1.40;;;39.20;36.00;;;;;;6271581;28;20187;-75
2021/06/26 15:44:19;;;;;;;4.20;3.90;;;38.90;35.70;;;;;;6254167;28;20195;-75
2021/06/26 15:47:21;;;;;;;3.53;3.30;;;38.30;36.60;;;;;;6252418;28;20209;-75
2021/06/26 15:50:26;;;;;;;1.45;1.35;;;37.70;37.10;;;;;;6252914;28;20293;-75
2021/06/26 15:53:29;;;;;;;2.35;2.15;;;37.30;37.90;;;;;;6253524;28;20620;-72